sensor_id;sensor_type;location;lat;lon;timestamp;P1;durP1;ratioP1;P2;durP2;ratioP2
69890;SDS011;57170;43.964;21.262;2022-07-29T00:00:45;12.35;;;9.50;;
69890;SDS011;57170;43.964;21.262;2022-07-29T00:03:12;14.45;;;10.30;;
69890;SDS011;57170;43.964;21.262;2022-07-29T00:05:39;11.45;;;9.38;;
69890;SDS011;57170;43.964;21.262;2022-07-29T00:08:05;13.48;;;8.32;;
69890;SDS011;57170;43.964;21.262;2022-07-29T00:10:32;11.18;;;9.43;;
69890;SDS011;57170;43.964;21.262;2022-07-29T00:12:58;11.90;;;9.15;;
69890;SDS011;57170;43.964;21.262;2022-07-29T00:15:24;13.98;;;10.18;;
69890;SDS011;57170;43.964;21.262;2022-07-29T00:17:50;12.48;;;9.52;;
69890;SDS011;57170;43.964;21.262;2022-07-29T00:20:16;15.45;;;11.18;;
69890;SDS011;57170;43.964;21.262;2022-07-29T00:22:42;11.88;;;9.57;;
69890;SDS011;57170;43.964;21.262;2022-07-29T00:25:09;11.32;;;9.88;;
69890;SDS011;57170;43.964;21.262;2022-07-29T00:27:35;12.68;;;11.20;;
69890;SDS011;57170;43.964;21.262;2022-07-29T00:30:02;12.90;;;11.32;;
69890;SDS011;57170;43.964;21.262;2022-07-29T00:32:28;16.48;;;12.32;;
69890;SDS011;57170;43.964;21.262;2022-07-29T00:34:54;17.65;;;11.15;;
69890;SDS011;57170;43.964;21.262;2022-07-29T00:37:39;13.55;;;10.85;;
69890;SDS011;57170;43.964;21.262;2022-07-29T00:40:05;13.50;;;10.88;;
69890;SDS011;57170;43.964;21.262;2022-07-29T00:42:41;14.00;;;10.45;;
69890;SDS011;57170;43.964;21.262;2022-07-29T00:45:07;12.20;;;10.27;;
69890;SDS011;57170;43.964;21.262;2022-07-29T00:47:33;14.18;;;11.13;;
69890;SDS011;57170;43.964;21.262;2022-07-29T00:50:00;12.70;;;10.23;;
69890;SDS011;57170;43.964;21.262;2022-07-29T00:52:26;13.65;;;11.45;;
69890;SDS011;57170;43.964;21.262;2022-07-29T00:54:52;12.15;;;10.50;;
69890;SDS011;57170;43.964;21.262;2022-07-29T00:57:18;13.85;;;11.18;;
69890;SDS011;57170;43.964;21.262;2022-07-29T00:59:45;14.48;;;9.90;;
69890;SDS011;57170;43.964;21.262;2022-07-29T01:02:11;15.88;;;10.60;;
69890;SDS011;57170;43.964;21.262;2022-07-29T01:04:38;15.07;;;11.10;;
69890;SDS011;57170;43.964;21.262;2022-07-29T01:07:04;14.85;;;10.88;;
69890;SDS011;57170;43.964;21.262;2022-07-29T01:09:33;16.40;;;11.65;;
69890;SDS011;57170;43.964;21.262;2022-07-29T01:12:00;13.52;;;11.57;;
69890;SDS011;57170;43.964;21.262;2022-07-29T01:14:27;14.30;;;11.30;;
69890;SDS011;57170;43.964;21.262;2022-07-29T01:19:36;13.07;;;10.63;;
69890;SDS011;57170;43.964;21.262;2022-07-29T01:22:31;15.10;;;10.82;;
69890;SDS011;57170;43.964;21.262;2022-07-29T01:27:32;13.07;;;10.43;;
69890;SDS011;57170;43.964;21.262;2022-07-29T01:30:03;14.48;;;10.80;;
69890;SDS011;57170;43.964;21.262;2022-07-29T01:32:29;13.70;;;11.05;;
69890;SDS011;57170;43.964;21.262;2022-07-29T01:40:21;17.83;;;11.90;;
69890;SDS011;57170;43.964;21.262;2022-07-29T01:42:50;15.50;;;12.13;;
69890;SDS011;57170;43.964;21.262;2022-07-29T01:45:21;12.38;;;10.82;;
69890;SDS011;57170;43.964;21.262;2022-07-29T01:50:16;13.50;;;10.57;;
69890;SDS011;57170;43.964;21.262;2022-07-29T01:52:52;12.00;;;9.82;;
69890;SDS011;57170;43.964;21.262;2022-07-29T01:55:20;14.18;;;10.77;;
69890;SDS011;57170;43.964;21.262;2022-07-29T01:57:48;16.27;;;10.48;;
69890;SDS011;57170;43.964;21.262;2022-07-29T02:00:15;12.43;;;10.57;;
69890;SDS011;57170;43.964;21.262;2022-07-29T02:02:42;12.30;;;10.30;;
69890;SDS011;57170;43.964;21.262;2022-07-29T02:05:10;16.35;;;11.10;;
69890;SDS011;57170;43.964;21.262;2022-07-29T02:07:36;12.05;;;10.75;;
69890;SDS011;57170;43.964;21.262;2022-07-29T02:10:03;12.98;;;10.00;;
69890;SDS011;57170;43.964;21.262;2022-07-29T02:12:30;13.10;;;11.00;;
69890;SDS011;57170;43.964;21.262;2022-07-29T02:14:59;12.93;;;9.63;;
69890;SDS011;57170;43.964;21.262;2022-07-29T02:17:27;13.10;;;11.27;;
69890;SDS011;57170;43.964;21.262;2022-07-29T02:19:56;15.52;;;10.70;;
69890;SDS011;57170;43.964;21.262;2022-07-29T02:22:22;15.07;;;10.88;;
69890;SDS011;57170;43.964;21.262;2022-07-29T02:24:50;12.63;;;10.52;;
69890;SDS011;57170;43.964;21.262;2022-07-29T02:27:17;18.02;;;11.18;;
69890;SDS011;57170;43.964;21.262;2022-07-29T02:29:45;13.85;;;11.35;;
69890;SDS011;57170;43.964;21.262;2022-07-29T02:32:12;12.77;;;11.48;;
69890;SDS011;57170;43.964;21.262;2022-07-29T02:34:39;13.07;;;11.55;;
69890;SDS011;57170;43.964;21.262;2022-07-29T02:37:05;14.32;;;11.13;;
69890;SDS011;57170;43.964;21.262;2022-07-29T02:39:33;18.45;;;11.68;;
69890;SDS011;57170;43.964;21.262;2022-07-29T02:42:07;11.50;;;9.90;;
69890;SDS011;57170;43.964;21.262;2022-07-29T02:44:33;14.27;;;11.32;;
69890;SDS011;57170;43.964;21.262;2022-07-29T02:49:38;14.18;;;10.27;;
69890;SDS011;57170;43.964;21.262;2022-07-29T02:52:08;11.52;;;9.82;;
69890;SDS011;57170;43.964;21.262;2022-07-29T02:54:41;13.23;;;10.68;;
69890;SDS011;57170;43.964;21.262;2022-07-29T02:57:11;12.32;;;11.02;;
69890;SDS011;57170;43.964;21.262;2022-07-29T02:59:41;12.13;;;10.40;;
69890;SDS011;57170;43.964;21.262;2022-07-29T03:02:08;13.38;;;11.23;;
69890;SDS011;57170;43.964;21.262;2022-07-29T03:04:35;11.55;;;10.32;;
69890;SDS011;57170;43.964;21.262;2022-07-29T03:07:02;12.52;;;10.07;;
69890;SDS011;57170;43.964;21.262;2022-07-29T03:09:29;12.13;;;9.95;;
69890;SDS011;57170;43.964;21.262;2022-07-29T03:11:55;13.35;;;10.63;;
69890;SDS011;57170;43.964;21.262;2022-07-29T03:14:22;12.07;;;10.77;;
69890;SDS011;57170;43.964;21.262;2022-07-29T03:16:49;12.35;;;10.65;;
69890;SDS011;57170;43.964;21.262;2022-07-29T03:19:16;15.25;;;10.43;;
69890;SDS011;57170;43.964;21.262;2022-07-29T03:21:43;12.73;;;10.65;;
69890;SDS011;57170;43.964;21.262;2022-07-29T03:24:09;11.73;;;9.73;;
69890;SDS011;57170;43.964;21.262;2022-07-29T03:26:35;13.95;;;10.77;;
69890;SDS011;57170;43.964;21.262;2022-07-29T03:29:01;12.25;;;9.55;;
69890;SDS011;57170;43.964;21.262;2022-07-29T03:31:27;13.32;;;9.68;;
69890;SDS011;57170;43.964;21.262;2022-07-29T03:33:53;13.52;;;10.55;;
69890;SDS011;57170;43.964;21.262;2022-07-29T03:36:19;12.30;;;11.07;;
69890;SDS011;57170;43.964;21.262;2022-07-29T03:38:45;21.10;;;11.43;;
69890;SDS011;57170;43.964;21.262;2022-07-29T03:41:13;15.98;;;11.75;;
69890;SDS011;57170;43.964;21.262;2022-07-29T03:43:40;17.52;;;12.25;;
69890;SDS011;57170;43.964;21.262;2022-07-29T03:46:07;15.05;;;11.43;;
69890;SDS011;57170;43.964;21.262;2022-07-29T03:48:35;13.10;;;10.52;;
69890;SDS011;57170;43.964;21.262;2022-07-29T03:51:03;12.38;;;10.88;;
69890;SDS011;57170;43.964;21.262;2022-07-29T03:53:29;12.10;;;10.32;;
69890;SDS011;57170;43.964;21.262;2022-07-29T03:55:56;11.38;;;9.93;;
69890;SDS011;57170;43.964;21.262;2022-07-29T03:58:24;12.52;;;10.25;;
69890;SDS011;57170;43.964;21.262;2022-07-29T04:00:52;11.30;;;10.18;;
69890;SDS011;57170;43.964;21.262;2022-07-29T04:03:18;13.13;;;11.70;;
69890;SDS011;57170;43.964;21.262;2022-07-29T04:05:44;12.32;;;10.02;;
69890;SDS011;57170;43.964;21.262;2022-07-29T04:08:10;12.43;;;10.73;;
69890;SDS011;57170;43.964;21.262;2022-07-29T04:10:37;13.15;;;11.10;;
69890;SDS011;57170;43.964;21.262;2022-07-29T04:13:03;12.10;;;10.90;;
69890;SDS011;57170;43.964;21.262;2022-07-29T04:15:29;11.68;;;9.80;;
69890;SDS011;57170;43.964;21.262;2022-07-29T04:17:55;12.32;;;10.43;;
69890;SDS011;57170;43.964;21.262;2022-07-29T04:20:22;12.48;;;9.60;;
69890;SDS011;57170;43.964;21.262;2022-07-29T04:22:48;11.73;;;10.52;;
69890;SDS011;57170;43.964;21.262;2022-07-29T04:25:14;13.45;;;10.80;;
69890;SDS011;57170;43.964;21.262;2022-07-29T04:27:40;11.88;;;10.55;;
69890;SDS011;57170;43.964;21.262;2022-07-29T04:30:25;11.43;;;10.20;;
69890;SDS011;57170;43.964;21.262;2022-07-29T04:32:51;12.32;;;9.73;;
69890;SDS011;57170;43.964;21.262;2022-07-29T04:35:17;11.35;;;9.88;;
69890;SDS011;57170;43.964;21.262;2022-07-29T04:37:43;11.13;;;9.55;;
69890;SDS011;57170;43.964;21.262;2022-07-29T04:40:10;11.38;;;9.48;;
69890;SDS011;57170;43.964;21.262;2022-07-29T04:42:37;9.73;;;8.73;;
69890;SDS011;57170;43.964;21.262;2022-07-29T04:45:03;10.48;;;8.40;;
69890;SDS011;57170;43.964;21.262;2022-07-29T04:47:29;10.55;;;8.98;;
69890;SDS011;57170;43.964;21.262;2022-07-29T04:49:55;10.82;;;9.82;;
69890;SDS011;57170;43.964;21.262;2022-07-29T04:52:21;9.55;;;8.27;;
69890;SDS011;57170;43.964;21.262;2022-07-29T04:54:48;11.38;;;8.65;;
69890;SDS011;57170;43.964;21.262;2022-07-29T04:57:14;9.02;;;7.93;;
69890;SDS011;57170;43.964;21.262;2022-07-29T04:59:40;10.25;;;7.82;;
69890;SDS011;57170;43.964;21.262;2022-07-29T05:02:06;8.82;;;7.72;;
69890;SDS011;57170;43.964;21.262;2022-07-29T05:04:32;10.02;;;9.02;;
69890;SDS011;57170;43.964;21.262;2022-07-29T05:06:58;12.00;;;7.47;;
69890;SDS011;57170;43.964;21.262;2022-07-29T05:09:24;8.75;;;7.82;;
69890;SDS011;57170;43.964;21.262;2022-07-29T05:11:50;10.00;;;7.13;;
69890;SDS011;57170;43.964;21.262;2022-07-29T05:14:16;7.85;;;6.60;;
69890;SDS011;57170;43.964;21.262;2022-07-29T05:16:43;9.90;;;7.35;;
69890;SDS011;57170;43.964;21.262;2022-07-29T05:19:09;8.30;;;7.50;;
69890;SDS011;57170;43.964;21.262;2022-07-29T05:21:35;9.88;;;7.78;;
69890;SDS011;57170;43.964;21.262;2022-07-29T05:24:01;8.77;;;7.88;;
69890;SDS011;57170;43.964;21.262;2022-07-29T05:26:27;9.23;;;7.20;;
69890;SDS011;57170;43.964;21.262;2022-07-29T05:28:53;8.43;;;7.38;;
69890;SDS011;57170;43.964;21.262;2022-07-29T05:31:19;8.75;;;7.55;;
69890;SDS011;57170;43.964;21.262;2022-07-29T05:33:46;8.65;;;6.93;;
69890;SDS011;57170;43.964;21.262;2022-07-29T05:36:12;8.98;;;8.07;;
69890;SDS011;57170;43.964;21.262;2022-07-29T05:38:38;8.68;;;7.78;;
69890;SDS011;57170;43.964;21.262;2022-07-29T05:41:04;9.07;;;7.47;;
69890;SDS011;57170;43.964;21.262;2022-07-29T05:43:31;10.52;;;8.15;;
69890;SDS011;57170;43.964;21.262;2022-07-29T05:45:57;8.88;;;7.97;;
69890;SDS011;57170;43.964;21.262;2022-07-29T05:48:23;8.40;;;7.60;;
69890;SDS011;57170;43.964;21.262;2022-07-29T05:50:50;8.38;;;7.28;;
69890;SDS011;57170;43.964;21.262;2022-07-29T05:53:16;7.93;;;7.10;;
69890;SDS011;57170;43.964;21.262;2022-07-29T05:55:42;8.20;;;7.40;;
69890;SDS011;57170;43.964;21.262;2022-07-29T05:58:08;7.97;;;7.18;;
69890;SDS011;57170;43.964;21.262;2022-07-29T06:00:34;7.72;;;7.03;;
69890;SDS011;57170;43.964;21.262;2022-07-29T06:03:00;8.48;;;7.65;;
69890;SDS011;57170;43.964;21.262;2022-07-29T06:05:26;9.75;;;7.63;;
69890;SDS011;57170;43.964;21.262;2022-07-29T06:07:53;8.20;;;6.85;;
69890;SDS011;57170;43.964;21.262;2022-07-29T06:10:19;6.95;;;6.35;;
69890;SDS011;57170;43.964;21.262;2022-07-29T06:12:45;7.82;;;6.60;;
69890;SDS011;57170;43.964;21.262;2022-07-29T06:15:11;7.68;;;6.82;;
69890;SDS011;57170;43.964;21.262;2022-07-29T06:17:37;7.40;;;6.70;;
69890;SDS011;57170;43.964;21.262;2022-07-29T06:20:04;7.85;;;7.15;;
69890;SDS011;57170;43.964;21.262;2022-07-29T06:22:30;9.68;;;7.20;;
69890;SDS011;57170;43.964;21.262;2022-07-29T06:24:56;8.02;;;7.15;;
69890;SDS011;57170;43.964;21.262;2022-07-29T06:27:22;7.07;;;6.47;;
69890;SDS011;57170;43.964;21.262;2022-07-29T06:29:48;9.48;;;7.03;;
69890;SDS011;57170;43.964;21.262;2022-07-29T06:32:14;12.40;;;7.00;;
69890;SDS011;57170;43.964;21.262;2022-07-29T06:34:40;8.88;;;6.68;;
69890;SDS011;57170;43.964;21.262;2022-07-29T06:37:07;6.22;;;5.65;;
69890;SDS011;57170;43.964;21.262;2022-07-29T06:39:34;6.53;;;5.93;;
69890;SDS011;57170;43.964;21.262;2022-07-29T06:42:01;9.57;;;6.35;;
69890;SDS011;57170;43.964;21.262;2022-07-29T06:44:27;6.85;;;6.10;;
69890;SDS011;57170;43.964;21.262;2022-07-29T06:46:53;6.97;;;5.85;;
69890;SDS011;57170;43.964;21.262;2022-07-29T06:49:19;7.10;;;6.40;;
69890;SDS011;57170;43.964;21.262;2022-07-29T06:51:45;6.88;;;6.20;;
69890;SDS011;57170;43.964;21.262;2022-07-29T06:54:12;7.97;;;7.18;;
69890;SDS011;57170;43.964;21.262;2022-07-29T06:56:38;8.00;;;6.95;;
69890;SDS011;57170;43.964;21.262;2022-07-29T06:59:10;6.63;;;6.03;;
69890;SDS011;57170;43.964;21.262;2022-07-29T07:01:36;6.20;;;5.63;;
69890;SDS011;57170;43.964;21.262;2022-07-29T07:04:03;8.63;;;7.72;;
69890;SDS011;57170;43.964;21.262;2022-07-29T07:06:29;8.30;;;7.60;;
69890;SDS011;57170;43.964;21.262;2022-07-29T07:08:55;8.82;;;7.32;;
69890;SDS011;57170;43.964;21.262;2022-07-29T07:11:21;6.80;;;6.03;;
69890;SDS011;57170;43.964;21.262;2022-07-29T07:13:47;7.38;;;6.78;;
69890;SDS011;57170;43.964;21.262;2022-07-29T07:16:13;7.65;;;7.03;;
69890;SDS011;57170;43.964;21.262;2022-07-29T07:18:39;8.57;;;7.78;;
69890;SDS011;57170;43.964;21.262;2022-07-29T07:21:05;7.72;;;7.03;;
69890;SDS011;57170;43.964;21.262;2022-07-29T07:23:31;8.40;;;7.57;;
69890;SDS011;57170;43.964;21.262;2022-07-29T07:25:58;8.43;;;7.53;;
69890;SDS011;57170;43.964;21.262;2022-07-29T07:28:24;8.35;;;7.53;;
69890;SDS011;57170;43.964;21.262;2022-07-29T07:30:50;8.60;;;7.65;;
69890;SDS011;57170;43.964;21.262;2022-07-29T07:33:16;8.15;;;7.28;;
69890;SDS011;57170;43.964;21.262;2022-07-29T07:35:42;7.85;;;7.15;;
69890;SDS011;57170;43.964;21.262;2022-07-29T07:38:09;7.90;;;7.22;;
69890;SDS011;57170;43.964;21.262;2022-07-29T07:40:35;7.85;;;6.95;;
69890;SDS011;57170;43.964;21.262;2022-07-29T07:43:02;8.65;;;7.47;;
69890;SDS011;57170;43.964;21.262;2022-07-29T07:45:28;10.18;;;7.07;;
69890;SDS011;57170;43.964;21.262;2022-07-29T07:47:54;7.95;;;7.22;;
69890;SDS011;57170;43.964;21.262;2022-07-29T07:50:20;7.60;;;6.82;;
69890;SDS011;57170;43.964;21.262;2022-07-29T07:52:50;8.88;;;7.75;;
69890;SDS011;57170;43.964;21.262;2022-07-29T07:55:17;8.15;;;7.43;;
69890;SDS011;57170;43.964;21.262;2022-07-29T07:57:43;9.60;;;7.53;;
69890;SDS011;57170;43.964;21.262;2022-07-29T08:00:10;9.50;;;8.50;;
69890;SDS011;57170;43.964;21.262;2022-07-29T08:02:37;10.15;;;8.50;;
69890;SDS011;57170;43.964;21.262;2022-07-29T08:05:04;7.70;;;6.97;;
69890;SDS011;57170;43.964;21.262;2022-07-29T08:07:30;8.80;;;8.05;;
69890;SDS011;57170;43.964;21.262;2022-07-29T08:09:56;8.75;;;7.97;;
69890;SDS011;57170;43.964;21.262;2022-07-29T08:12:22;8.55;;;7.75;;
69890;SDS011;57170;43.964;21.262;2022-07-29T08:14:48;7.47;;;6.88;;
69890;SDS011;57170;43.964;21.262;2022-07-29T08:17:14;8.65;;;7.75;;
69890;SDS011;57170;43.964;21.262;2022-07-29T08:19:40;8.68;;;7.95;;
69890;SDS011;57170;43.964;21.262;2022-07-29T08:22:06;7.72;;;7.13;;
69890;SDS011;57170;43.964;21.262;2022-07-29T08:24:33;9.30;;;8.43;;
69890;SDS011;57170;43.964;21.262;2022-07-29T08:27:08;8.40;;;7.63;;
69890;SDS011;57170;43.964;21.262;2022-07-29T08:29:35;8.55;;;7.70;;
69890;SDS011;57170;43.964;21.262;2022-07-29T08:32:02;20.70;;;8.18;;
69890;SDS011;57170;43.964;21.262;2022-07-29T08:34:29;10.40;;;8.30;;
69890;SDS011;57170;43.964;21.262;2022-07-29T08:36:55;13.77;;;8.20;;
69890;SDS011;57170;43.964;21.262;2022-07-29T08:39:22;9.77;;;8.25;;
69890;SDS011;57170;43.964;21.262;2022-07-29T08:41:48;8.93;;;8.05;;
69890;SDS011;57170;43.964;21.262;2022-07-29T08:44:16;8.63;;;7.82;;
69890;SDS011;57170;43.964;21.262;2022-07-29T08:46:42;9.25;;;8.55;;
69890;SDS011;57170;43.964;21.262;2022-07-29T08:49:08;9.57;;;8.68;;
69890;SDS011;57170;43.964;21.262;2022-07-29T08:51:34;9.00;;;8.30;;
69890;SDS011;57170;43.964;21.262;2022-07-29T08:54:02;9.20;;;8.40;;
69890;SDS011;57170;43.964;21.262;2022-07-29T08:56:28;8.35;;;7.50;;
69890;SDS011;57170;43.964;21.262;2022-07-29T08:58:54;9.98;;;7.82;;
69890;SDS011;57170;43.964;21.262;2022-07-29T09:01:23;9.75;;;8.85;;
69890;SDS011;57170;43.964;21.262;2022-07-29T09:03:50;8.40;;;7.60;;
69890;SDS011;57170;43.964;21.262;2022-07-29T09:06:17;8.13;;;7.32;;
69890;SDS011;57170;43.964;21.262;2022-07-29T09:08:47;8.52;;;7.60;;
69890;SDS011;57170;43.964;21.262;2022-07-29T09:11:13;9.30;;;8.45;;
69890;SDS011;57170;43.964;21.262;2022-07-29T09:13:40;8.82;;;8.13;;
69890;SDS011;57170;43.964;21.262;2022-07-29T09:16:06;8.38;;;7.50;;
69890;SDS011;57170;43.964;21.262;2022-07-29T09:18:33;12.40;;;7.88;;
69890;SDS011;57170;43.964;21.262;2022-07-29T09:21:00;9.15;;;8.35;;
69890;SDS011;57170;43.964;21.262;2022-07-29T09:26:30;8.82;;;7.93;;
69890;SDS011;57170;43.964;21.262;2022-07-29T09:28:56;8.48;;;7.78;;
69890;SDS011;57170;43.964;21.262;2022-07-29T09:31:31;8.35;;;7.55;;
69890;SDS011;57170;43.964;21.262;2022-07-29T09:33:58;8.90;;;7.95;;
69890;SDS011;57170;43.964;21.262;2022-07-29T09:36:25;9.43;;;8.48;;
69890;SDS011;57170;43.964;21.262;2022-07-29T09:39:00;8.45;;;7.75;;
69890;SDS011;57170;43.964;21.262;2022-07-29T09:41:28;9.55;;;7.82;;
69890;SDS011;57170;43.964;21.262;2022-07-29T09:43:55;9.23;;;8.40;;
69890;SDS011;57170;43.964;21.262;2022-07-29T09:46:21;8.93;;;7.35;;
69890;SDS011;57170;43.964;21.262;2022-07-29T09:49:06;10.52;;;8.65;;
69890;SDS011;57170;43.964;21.262;2022-07-29T09:51:33;8.90;;;8.02;;
69890;SDS011;57170;43.964;21.262;2022-07-29T09:53:59;8.43;;;7.60;;
69890;SDS011;57170;43.964;21.262;2022-07-29T09:56:41;8.52;;;7.82;;
69890;SDS011;57170;43.964;21.262;2022-07-29T09:59:08;9.05;;;8.15;;
69890;SDS011;57170;43.964;21.262;2022-07-29T10:01:37;8.85;;;7.97;;
69890;SDS011;57170;43.964;21.262;2022-07-29T10:04:03;7.97;;;7.20;;
69890;SDS011;57170;43.964;21.262;2022-07-29T10:06:29;9.80;;;8.35;;
69890;SDS011;57170;43.964;21.262;2022-07-29T10:09:06;8.98;;;8.00;;
69890;SDS011;57170;43.964;21.262;2022-07-29T10:11:33;8.18;;;7.38;;
69890;SDS011;57170;43.964;21.262;2022-07-29T10:13:59;8.48;;;7.68;;
69890;SDS011;57170;43.964;21.262;2022-07-29T10:16:27;10.57;;;8.15;;
69890;SDS011;57170;43.964;21.262;2022-07-29T10:18:58;8.07;;;7.28;;
69890;SDS011;57170;43.964;21.262;2022-07-29T10:21:27;10.07;;;7.20;;
69890;SDS011;57170;43.964;21.262;2022-07-29T10:23:54;9.45;;;8.38;;
69890;SDS011;57170;43.964;21.262;2022-07-29T10:26:20;9.45;;;8.55;;
69890;SDS011;57170;43.964;21.262;2022-07-29T10:28:47;9.70;;;7.95;;
69890;SDS011;57170;43.964;21.262;2022-07-29T10:31:20;13.60;;;9.68;;
69890;SDS011;57170;43.964;21.262;2022-07-29T10:33:55;10.80;;;9.75;;
69890;SDS011;57170;43.964;21.262;2022-07-29T10:44:16;10.43;;;9.35;;
69890;SDS011;57170;43.964;21.262;2022-07-29T10:46:43;11.18;;;10.05;;
69890;SDS011;57170;43.964;21.262;2022-07-29T10:49:13;13.82;;;10.40;;
69890;SDS011;57170;43.964;21.262;2022-07-29T10:59:48;11.30;;;10.15;;
69890;SDS011;57170;43.964;21.262;2022-07-29T11:05:14;12.90;;;10.40;;
69890;SDS011;57170;43.964;21.262;2022-07-29T11:10:29;11.45;;;10.07;;
69890;SDS011;57170;43.964;21.262;2022-07-29T11:12:55;11.15;;;10.02;;
69890;SDS011;57170;43.964;21.262;2022-07-29T11:15:21;13.05;;;10.50;;
69890;SDS011;57170;43.964;21.262;2022-07-29T11:22:59;10.70;;;9.60;;
69890;SDS011;57170;43.964;21.262;2022-07-29T11:25:25;10.25;;;9.27;;
69890;SDS011;57170;43.964;21.262;2022-07-29T11:27:52;18.58;;;10.27;;
69890;SDS011;57170;43.964;21.262;2022-07-29T11:30:19;13.05;;;10.40;;
69890;SDS011;57170;43.964;21.262;2022-07-29T11:32:46;12.27;;;10.60;;
69890;SDS011;57170;43.964;21.262;2022-07-29T11:35:19;11.60;;;9.73;;
69890;SDS011;57170;43.964;21.262;2022-07-29T11:37:46;10.90;;;9.73;;
69890;SDS011;57170;43.964;21.262;2022-07-29T11:40:32;11.52;;;9.93;;
69890;SDS011;57170;43.964;21.262;2022-07-29T11:42:58;11.93;;;10.73;;
69890;SDS011;57170;43.964;21.262;2022-07-29T11:45:25;14.02;;;9.25;;
69890;SDS011;57170;43.964;21.262;2022-07-29T11:47:57;10.15;;;9.15;;
69890;SDS011;57170;43.964;21.262;2022-07-29T11:50:34;9.95;;;8.95;;
69890;SDS011;57170;43.964;21.262;2022-07-29T11:53:01;11.38;;;10.38;;
69890;SDS011;57170;43.964;21.262;2022-07-29T11:55:28;10.88;;;9.57;;
69890;SDS011;57170;43.964;21.262;2022-07-29T11:57:57;10.55;;;9.55;;
69890;SDS011;57170;43.964;21.262;2022-07-29T12:02:53;13.05;;;10.32;;
69890;SDS011;57170;43.964;21.262;2022-07-29T12:05:20;10.02;;;9.00;;
69890;SDS011;57170;43.964;21.262;2022-07-29T12:07:47;10.07;;;9.02;;
69890;SDS011;57170;43.964;21.262;2022-07-29T12:10:13;11.63;;;9.25;;
69890;SDS011;57170;43.964;21.262;2022-07-29T12:12:40;10.25;;;9.23;;
69890;SDS011;57170;43.964;21.262;2022-07-29T12:15:16;12.43;;;9.82;;
69890;SDS011;57170;43.964;21.262;2022-07-29T12:17:44;12.40;;;10.25;;
69890;SDS011;57170;43.964;21.262;2022-07-29T12:20:11;11.23;;;10.02;;
69890;SDS011;57170;43.964;21.262;2022-07-29T12:22:39;11.18;;;10.05;;
69890;SDS011;57170;43.964;21.262;2022-07-29T12:25:07;10.30;;;9.30;;
69890;SDS011;57170;43.964;21.262;2022-07-29T12:27:34;13.05;;;10.43;;
69890;SDS011;57170;43.964;21.262;2022-07-29T12:30:02;11.63;;;9.80;;
69890;SDS011;57170;43.964;21.262;2022-07-29T12:32:39;12.73;;;9.20;;
69890;SDS011;57170;43.964;21.262;2022-07-29T12:35:06;11.00;;;9.88;;
69890;SDS011;57170;43.964;21.262;2022-07-29T12:37:36;10.57;;;9.35;;
69890;SDS011;57170;43.964;21.262;2022-07-29T12:40:03;9.70;;;8.82;;
69890;SDS011;57170;43.964;21.262;2022-07-29T12:42:30;13.55;;;10.27;;
69890;SDS011;57170;43.964;21.262;2022-07-29T12:44:56;11.82;;;9.48;;
69890;SDS011;57170;43.964;21.262;2022-07-29T12:47:23;11.98;;;9.48;;
69890;SDS011;57170;43.964;21.262;2022-07-29T12:49:49;11.65;;;9.07;;
69890;SDS011;57170;43.964;21.262;2022-07-29T12:54:51;10.43;;;9.20;;
69890;SDS011;57170;43.964;21.262;2022-07-29T12:57:17;9.38;;;8.43;;
69890;SDS011;57170;43.964;21.262;2022-07-29T12:59:43;11.98;;;9.82;;
69890;SDS011;57170;43.964;21.262;2022-07-29T13:02:22;9.82;;;8.82;;
69890;SDS011;57170;43.964;21.262;2022-07-29T13:04:55;11.80;;;10.25;;
69890;SDS011;57170;43.964;21.262;2022-07-29T13:07:28;9.45;;;8.43;;
69890;SDS011;57170;43.964;21.262;2022-07-29T13:13:01;10.77;;;9.50;;
69890;SDS011;57170;43.964;21.262;2022-07-29T13:15:26;10.93;;;9.77;;
69890;SDS011;57170;43.964;21.262;2022-07-29T13:17:52;11.75;;;9.73;;
69890;SDS011;57170;43.964;21.262;2022-07-29T13:20:18;10.38;;;9.32;;
69890;SDS011;57170;43.964;21.262;2022-07-29T13:22:47;10.80;;;9.57;;
69890;SDS011;57170;43.964;21.262;2022-07-29T13:25:13;10.60;;;9.55;;
69890;SDS011;57170;43.964;21.262;2022-07-29T13:27:39;10.85;;;8.85;;
69890;SDS011;57170;43.964;21.262;2022-07-29T13:30:06;10.40;;;9.18;;
69890;SDS011;57170;43.964;21.262;2022-07-29T13:32:33;11.20;;;9.88;;
69890;SDS011;57170;43.964;21.262;2022-07-29T13:35:01;12.48;;;10.63;;
69890;SDS011;57170;43.964;21.262;2022-07-29T13:37:28;11.90;;;9.27;;
69890;SDS011;57170;43.964;21.262;2022-07-29T13:39:57;10.43;;;8.82;;
69890;SDS011;57170;43.964;21.262;2022-07-29T13:42:24;10.52;;;9.50;;
69890;SDS011;57170;43.964;21.262;2022-07-29T13:44:50;10.68;;;9.68;;
69890;SDS011;57170;43.964;21.262;2022-07-29T13:47:20;12.95;;;9.25;;
69890;SDS011;57170;43.964;21.262;2022-07-29T13:49:47;9.52;;;8.45;;
69890;SDS011;57170;43.964;21.262;2022-07-29T13:52:13;11.38;;;9.90;;
69890;SDS011;57170;43.964;21.262;2022-07-29T13:54:39;10.48;;;8.95;;
69890;SDS011;57170;43.964;21.262;2022-07-29T13:57:05;11.63;;;9.38;;
69890;SDS011;57170;43.964;21.262;2022-07-29T13:59:31;91.00;;;24.10;;
69890;SDS011;57170;43.964;21.262;2022-07-29T14:01:58;10.75;;;8.18;;
69890;SDS011;57170;43.964;21.262;2022-07-29T14:04:24;30.60;;;11.13;;
69890;SDS011;57170;43.964;21.262;2022-07-29T14:06:50;10.02;;;9.02;;
69890;SDS011;57170;43.964;21.262;2022-07-29T14:09:16;10.10;;;9.18;;
69890;SDS011;57170;43.964;21.262;2022-07-29T14:11:42;9.80;;;8.73;;
69890;SDS011;57170;43.964;21.262;2022-07-29T14:14:08;9.02;;;8.15;;
69890;SDS011;57170;43.964;21.262;2022-07-29T14:16:35;10.60;;;9.57;;
69890;SDS011;57170;43.964;21.262;2022-07-29T14:19:02;9.57;;;8.63;;
69890;SDS011;57170;43.964;21.262;2022-07-29T14:21:28;9.77;;;8.80;;
69890;SDS011;57170;43.964;21.262;2022-07-29T14:23:55;31.67;;;12.05;;
69890;SDS011;57170;43.964;21.262;2022-07-29T14:26:21;14.90;;;9.98;;
69890;SDS011;57170;43.964;21.262;2022-07-29T14:28:48;11.05;;;9.13;;
69890;SDS011;57170;43.964;21.262;2022-07-29T14:31:14;26.08;;;11.02;;
69890;SDS011;57170;43.964;21.262;2022-07-29T14:33:41;10.80;;;7.93;;
69890;SDS011;57170;43.964;21.262;2022-07-29T14:36:07;8.95;;;8.05;;
69890;SDS011;57170;43.964;21.262;2022-07-29T14:38:34;10.23;;;8.93;;
69890;SDS011;57170;43.964;21.262;2022-07-29T14:41:00;10.93;;;8.90;;
69890;SDS011;57170;43.964;21.262;2022-07-29T14:43:26;10.43;;;8.55;;
69890;SDS011;57170;43.964;21.262;2022-07-29T14:45:52;10.98;;;9.23;;
69890;SDS011;57170;43.964;21.262;2022-07-29T14:48:18;9.60;;;8.70;;
69890;SDS011;57170;43.964;21.262;2022-07-29T14:50:45;9.23;;;8.32;;
69890;SDS011;57170;43.964;21.262;2022-07-29T14:53:11;10.45;;;9.45;;
69890;SDS011;57170;43.964;21.262;2022-07-29T14:55:38;10.52;;;7.88;;
69890;SDS011;57170;43.964;21.262;2022-07-29T14:58:05;9.68;;;8.77;;
69890;SDS011;57170;43.964;21.262;2022-07-29T15:00:31;9.15;;;8.25;;
69890;SDS011;57170;43.964;21.262;2022-07-29T15:02:59;10.27;;;9.23;;
69890;SDS011;57170;43.964;21.262;2022-07-29T15:05:25;9.75;;;8.40;;
69890;SDS011;57170;43.964;21.262;2022-07-29T15:07:51;10.52;;;9.50;;
69890;SDS011;57170;43.964;21.262;2022-07-29T15:10:18;13.05;;;9.52;;
69890;SDS011;57170;43.964;21.262;2022-07-29T15:12:44;13.07;;;10.32;;
69890;SDS011;57170;43.964;21.262;2022-07-29T15:15:10;10.63;;;9.48;;
69890;SDS011;57170;43.964;21.262;2022-07-29T15:17:36;10.77;;;9.65;;